Time;durP1;ratioP1;P1;durP2;ratioP2;P2;SDS_P1;SDS_P2;PMS_P1;PMS_P2;Temp;Humidity;BMP_temperature;BMP_pressure;BME280_temperature;BME280_humidity;BME280_pressure;Samples;Min_cycle;Max_cycle;Signal;HPM_P1;HPM_P2
2021/06/01 00:01:01;;;;;;;2.42;1.8;;;16.1;93.5;;;;;;;;;
2021/06/01 00:02:01;;;;;;;1.8;1.7;;;16;93.9;;;;;;;;;
2021/06/01 00:03:01;;;;;;;4.15;2.03;;;16;94;;;;;;;;;
2021/06/01 00:03:18;;;;;;;3.63;1.8;;;16;93.9;;;;;;;;;
2021/06/01 00:04:01;;;;;;;3.63;1.8;;;16;93.9;;;;;;;;;
2021/06/01 00:04:12;;;;;;;4.03;1.6;;;16;94;;;;;;;;;
2021/06/01 00:05:01;;;;;;;4.03;1.6;;;16;94;;;;;;;;;
2021/06/01 00:05:14;;;;;;;4.1;2.1;;;16;93.9;;;;;;;;;
2021/06/01 00:05:29;;;;;;;4.1;2.1;;;16;93.9;;;;;;;;;
2021/06/01 00:06:01;;;;;;;4.1;2.1;;;16;93.9;;;;;;;;;
2021/06/01 00:06:15;;;;;;;3.78;1.9;;;16.1;94.2;;;;;;;;;
2021/06/01 00:06:25;;;;;;;3.78;1.9;;;16.1;94.2;;;;;;;;;
2021/06/01 00:07:01;;;;;;;3.78;1.9;;;16.1;94.2;;;;;;;;;
2021/06/01 00:07:17;;;;;;;3.6;1.95;;;16.1;93.7;;;;;;;;;
2021/06/01 00:07:27;;;;;;;3.6;1.95;;;16.1;93.7;;;;;;;;;
2021/06/01 00:07:42;;;;;;;3.6;1.95;;;16.1;93.7;;;;;;;;;
2021/06/01 00:08:01;;;;;;;3.6;1.95;;;16.1;93.7;;;;;;;;;
2021/06/01 00:08:13;;;;;;;3.25;2.1;;;16.1;93.7;;;;;;;;;
2021/06/01 00:08:28;;;;;;;3.25;2.1;;;16.1;93.7;;;;;;;;;
2021/06/01 00:08:39;;;;;;;3.25;2.1;;;16.1;93.7;;;;;;;;;
2021/06/01 00:09:01;;;;;;;3.25;2.1;;;16.1;93.7;;;;;;;;;
2021/06/01 00:09:14;;;;;;;1.8;1.7;;;16.1;93.8;;;;;;;;;
2021/06/01 00:09:30;;;;;;;1.8;1.7;;;16.1;93.8;;;;;;;;;
2021/06/01 00:09:40;;;;;;;1.8;1.7;;;16.1;93.8;;;;;;;;;
2021/06/01 00:09:55;;;;;;;1.8;1.7;;;16.1;93.8;;;;;;;;;
2021/06/01 00:10:01;;;;;;;1.8;1.7;;;16.1;93.8;;;;;;;;;
2021/06/01 00:10:16;;;;;;;2.65;1.88;;;16.2;93.8;;;;;;;;;
2021/06/01 00:10:26;;;;;;;2.65;1.88;;;16.2;93.8;;;;;;;;;
2021/06/01 00:10:41;;;;;;;2.65;1.88;;;16.2;93.8;;;;;;;;;
2021/06/01 00:10:52;;;;;;;2.65;1.88;;;16.2;93.8;;;;;;;;;
2021/06/01 00:11:02;;;;;;;2.65;1.88;;;16.2;93.8;;;;;;;;;
2021/06/01 00:11:17;;;;;;;3.4;2;;;16.2;93.8;;;;;;;;;
2021/06/01 00:11:28;;;;;;;3.4;2;;;16.2;93.8;;;;;;;;;
2021/06/01 00:11:43;;;;;;;3.4;2;;;16.2;93.8;;;;;;;;;
2021/06/01 00:11:53;;;;;;;3.4;2;;;16.2;93.8;;;;;;;;;
2021/06/01 00:12:01;;;;;;;3.4;2;;;16.2;93.8;;;;;;;;;
2021/06/01 00:12:08;;;;;;;3.4;2;;;16.2;93.8;;;;;;;;;
2021/06/01 00:12:14;;;;;;;3.4;2;;;16.2;93.8;;;;;;;;;
2021/06/01 00:12:29;;;;;;;2.17;1.98;;;16.2;93.8;;;;;;;;;
2021/06/01 00:12:39;;;;;;;2.17;1.98;;;16.2;93.8;;;;;;;;;
2021/06/01 00:12:54;;;;;;;2.17;1.98;;;16.2;93.8;;;;;;;;;
2021/06/01 00:13:01;;;;;;;2.17;1.98;;;16.2;93.8;;;;;;;;;
2021/06/01 00:13:05;;;;;;;2.17;1.98;;;16.2;93.8;;;;;;;;;
2021/06/01 00:13:15;;;;;;;3.28;2.55;;;16.1;94;;;;;;;;;
2021/06/01 00:13:30;;;;;;;3.28;2.55;;;16.1;94;;;;;;;;;
2021/06/01 00:13:41;;;;;;;3.28;2.55;;;16.1;94;;;;;;;;;
2021/06/01 00:13:56;;;;;;;3.28;2.55;;;16.1;94;;;;;;;;;
2021/06/01 00:14:01;;;;;;;3.28;2.55;;;16.1;94;;;;;;;;;
2021/06/01 00:14:06;;;;;;;3.28;2.55;;;16.1;94;;;;;;;;;
2021/06/01 00:14:16;;;;;;;4.53;2.22;;;16.1;94.2;;;;;;;;;
2021/06/01 00:14:27;;;;;;;4.53;2.22;;;16.1;94.2;;;;;;;;;
2021/06/01 00:14:42;;;;;;;4.53;2.22;;;16.1;94.2;;;;;;;;;
2021/06/01 00:14:52;;;;;;;4.53;2.22;;;16.1;94.2;;;;;;;;;
2021/06/01 00:15:02;;;;;;;4.53;2.22;;;16.1;94.2;;;;;;;;;
2021/06/01 00:15:09;;;;;;;4.53;2.22;;;16.1;94.2;;;;;;;;;
2021/06/01 00:15:13;;;;;;;4.53;2.22;;;16.1;94.2;;;;;;;;;
2021/06/01 00:15:28;;;;;;;4.75;2.47;;;16;94.2;;;;;;;;;
2021/06/01 00:15:43;;;;;;;4.75;2.47;;;16;94.2;;;;;;;;;
2021/06/01 00:15:54;;;;;;;4.75;2.47;;;16;94.2;;;;;;;;;
2021/06/01 00:16:02;;;;;;;4.75;2.47;;;16;94.2;;;;;;;;;
2021/06/01 00:16:09;;;;;;;4.75;2.47;;;16;94.2;;;;;;;;;
2021/06/01 00:16:14;;;;;;;4.75;2.47;;;16;94.2;;;;;;;;;
2021/06/01 00:16:30;;;;;;;4.13;2.22;;;15.9;94.3;;;;;;;;;
2021/06/01 00:16:40;;;;;;;4.13;2.22;;;15.9;94.3;;;;;;;;;
2021/06/01 00:16:55;;;;;;;4.13;2.22;;;15.9;94.3;;;;;;;;;
2021/06/01 00:17:02;;;;;;;4.13;2.22;;;15.9;94.3;;;;;;;;;
2021/06/01 00:17:05;;;;;;;4.13;2.22;;;15.9;94.3;;;;;;;;;
2021/06/01 00:17:16;;;;;;;4.22;2.2;;;15.9;94.4;;;;;;;;;
2021/06/01 00:17:26;;;;;;;4.22;2.2;;;15.9;94.4;;;;;;;;;
2021/06/01 00:17:41;;;;;;;4.22;2.2;;;15.9;94.4;;;;;;;;;
2021/06/01 00:17:57;;;;;;;4.22;2.2;;;15.9;94.4;;;;;;;;;
2021/06/01 00:18:01;;;;;;;4.22;2.2;;;15.9;94.4;;;;;;;;;
2021/06/01 00:18:07;;;;;;;4.22;2.2;;;15.9;94.4;;;;;;;;;
2021/06/01 00:18:12;;;;;;;4.22;2.2;;;15.9;94.4;;;;;;;;;
2021/06/01 00:18:27;;;;;;;2.65;2.38;;;15.9;94.5;;;;;;;;;
2021/06/01 00:18:43;;;;;;;2.65;2.38;;;15.9;94.5;;;;;;;;;
2021/06/01 00:18:53;;;;;;;2.65;2.38;;;15.9;94.5;;;;;;;;;
2021/06/01 00:19:02;;;;;;;2.65;2.38;;;15.9;94.5;;;;;;;;;
2021/06/01 00:19:08;;;;;;;2.65;2.38;;;15.9;94.5;;;;;;;;;
2021/06/01 00:19:13;;;;;;;2.65;2.38;;;15.9;94.5;;;;;;;;;
2021/06/01 00:19:29;;;;;;;2.4;2.03;;;15.8;94.6;;;;;;;;;
2021/06/01 00:19:39;;;;;;;2.4;2.03;;;15.8;94.6;;;;;;;;;
2021/06/01 00:19:56;;;;;;;2.4;2.03;;;15.8;94.6;;;;;;;;;
2021/06/01 00:20:02;;;;;;;2.4;2.03;;;15.8;94.6;;;;;;;;;
2021/06/01 00:20:10;;;;;;;2.4;2.03;;;15.8;94.6;;;;;;;;;
2021/06/01 00:20:15;;;;;;;2.4;2.03;;;15.8;94.6;;;;;;;;;
2021/06/01 00:20:26;;;;;;;3.38;2.4;;;15.8;94.6;;;;;;;;;
2021/06/01 00:20:40;;;;;;;3.38;2.4;;;15.8;94.6;;;;;;;;;
2021/06/01 00:20:56;;;;;;;3.38;2.4;;;15.8;94.6;;;;;;;;;
2021/06/01 00:21:02;;;;;;;3.38;2.4;;;15.8;94.6;;;;;;;;;
2021/06/01 00:21:06;;;;;;;3.38;2.4;;;15.8;94.6;;;;;;;;;
2021/06/01 00:21:16;;;;;;;3.38;2.4;;;15.8;94.6;;;;;;;;;
2021/06/01 00:21:27;;;;;;;4.15;2.13;;;15.8;94.6;;;;;;;;;
2021/06/01 00:21:42;;;;;;;4.15;2.13;;;15.8;94.6;;;;;;;;;
2021/06/01 00:21:52;;;;;;;4.15;2.13;;;15.8;94.6;;;;;;;;;
2021/06/01 00:22:02;;;;;;;4.15;2.13;;;15.8;94.6;;;;;;;;;
2021/06/01 00:22:07;;;;;;;4.15;2.13;;;15.8;94.6;;;;;;;;;
2021/06/01 00:22:18;;;;;;;2.67;2.2;;;15.8;94.6;;;;;;;;;
2021/06/01 00:22:28;;;;;;;2.67;2.2;;;15.8;94.6;;;;;;;;;
2021/06/01 00:22:38;;;;;;;2.67;2.2;;;15.8;94.6;;;;;;;;;
2021/06/01 00:22:54;;;;;;;2.67;2.2;;;15.8;94.6;;;;;;;;;
2021/06/01 00:23:01;;;;;;;2.67;2.2;;;15.8;94.6;;;;;;;;;
2021/06/01 00:23:09;;;;;;;2.67;2.2;;;15.8;94.6;;;;;;;;;
2021/06/01 00:23:14;;;;;;;2.67;2.2;;;15.8;94.6;;;;;;;;;
2021/06/01 00:23:30;;;;;;;2.78;2.28;;;15.8;94.6;;;;;;;;;
2021/06/01 00:23:40;;;;;;;2.78;2.28;;;15.8;94.6;;;;;;;;;
2021/06/01 00:23:55;;;;;;;2.78;2.28;;;15.8;94.6;;;;;;;;;
2021/06/01 00:24:02;;;;;;;2.78;2.28;;;15.8;94.6;;;;;;;;;
2021/06/01 00:24:05;;;;;;;2.78;2.28;;;15.8;94.6;;;;;;;;;
2021/06/01 00:24:16;;;;;;;2.78;2.28;;;15.8;94.6;;;;;;;;;
2021/06/01 00:24:31;;;;;;;2.3;2.1;;;15.7;94.7;;;;;;;;;
2021/06/01 00:24:41;;;;;;;2.3;2.1;;;15.7;94.7;;;;;;;;;
2021/06/01 00:24:51;;;;;;;2.3;2.1;;;15.7;94.7;;;;;;;;;
2021/06/01 00:25:02;;;;;;;2.3;2.1;;;15.7;94.7;;;;;;;;;
2021/06/01 00:25:07;;;;;;;2.3;2.1;;;15.7;94.7;;;;;;;;;
2021/06/01 00:25:12;;;;;;;2.3;2.1;;;15.7;94.7;;;;;;;;;
2021/06/01 00:25:27;;;;;;;3.75;2.3;;;15.7;94.8;;;;;;;;;
2021/06/01 00:25:43;;;;;;;3.75;2.3;;;15.7;94.8;;;;;;;;;
2021/06/01 00:25:53;;;;;;;3.75;2.3;;;15.7;94.8;;;;;;;;;
2021/06/01 00:26:02;;;;;;;3.75;2.3;;;15.7;94.8;;;;;;;;;
2021/06/01 00:26:08;;;;;;;3.75;2.3;;;15.7;94.8;;;;;;;;;
2021/06/01 00:26:13;;;;;;;3.75;2.3;;;15.7;94.8;;;;;;;;;
2021/06/01 00:26:29;;;;;;;4.25;2.4;;;15.7;94.8;;;;;;;;;
2021/06/01 00:26:44;;;;;;;4.25;2.4;;;15.7;94.8;;;;;;;;;
2021/06/01 00:26:54;;;;;;;4.25;2.4;;;15.7;94.8;;;;;;;;;
2021/06/01 00:27:02;;;;;;;4.25;2.4;;;15.7;94.8;;;;;;;;;
2021/06/01 00:27:04;;;;;;;4.25;2.4;;;15.7;94.8;;;;;;;;;
2021/06/01 00:27:15;;;;;;;4.25;2.4;;;15.7;94.8;;;;;;;;;
2021/06/01 00:27:25;;;;;;;2.35;2.1;;;15.7;94.9;;;;;;;;;
2021/06/01 00:27:40;;;;;;;2.35;2.1;;;15.7;94.9;;;;;;;;;
2021/06/01 00:27:56;;;;;;;2.35;2.1;;;15.7;94.9;;;;;;;;;
2021/06/01 00:28:01;;;;;;;2.35;2.1;;;15.7;94.9;;;;;;;;;
2021/06/01 00:28:06;;;;;;;2.35;2.1;;;15.7;94.9;;;;;;;;;
2021/06/01 00:28:16;;;;;;;2.35;2.1;;;15.7;94.9;;;;;;;;;
2021/06/01 00:28:26;;;;;;;4.35;2.4;;;15.7;94.8;;;;;;;;;
2021/06/01 00:28:42;;;;;;;4.35;2.4;;;15.7;94.8;;;;;;;;;
2021/06/01 00:28:57;;;;;;;4.35;2.4;;;15.7;94.8;;;;;;;;;
2021/06/01 00:29:02;;;;;;;4.35;2.4;;;15.7;94.8;;;;;;;;;
2021/06/01 00:29:07;;;;;;;4.35;2.4;;;15.7;94.8;;;;;;;;;
2021/06/01 00:29:18;;;;;;;4.35;2.4;;;15.7;94.8;;;;;;;;;
2021/06/01 00:29:28;;;;;;;3.35;2.13;;;15.8;94.8;;;;;;;;;
2021/06/01 00:29:38;;;;;;;3.35;2.13;;;15.8;94.8;;;;;;;;;
2021/06/01 00:29:53;;;;;;;3.35;2.13;;;15.8;94.8;;;;;;;;;
2021/06/01 00:30:02;;;;;;;3.35;2.13;;;15.8;94.8;;;;;;;;;
2021/06/01 00:30:09;;;;;;;3.35;2.13;;;15.8;94.8;;;;;;;;;
2021/06/01 00:30:14;;;;;;;3.35;2.13;;;15.8;94.8;;;;;;;;;
2021/06/01 00:30:29;;;;;;;3.38;2.83;;;15.8;94.8;;;;;;;;;
2021/06/01 00:30:40;;;;;;;3.38;2.83;;;15.8;94.8;;;;;;;;;
2021/06/01 00:30:55;;;;;;;3.38;2.83;;;15.8;94.8;;;;;;;;;
2021/06/01 00:31:02;;;;;;;3.38;2.83;;;15.8;94.8;;;;;;;;;
2021/06/01 00:31:10;;;;;;;3.38;2.83;;;15.8;94.8;;;;;;;;;
2021/06/01 00:31:15;;;;;;;3.38;2.83;;;15.8;94.8;;;;;;;;;
2021/06/01 00:31:31;;;;;;;4.85;2.92;;;15.8;94.9;;;;;;;;;
2021/06/01 00:31:42;;;;;;;4.85;2.92;;;15.8;94.9;;;;;;;;;
2021/06/01 00:31:51;;;;;;;4.85;2.92;;;15.8;94.9;;;;;;;;;
2021/06/01 00:32:02;;;;;;;4.85;2.92;;;15.8;94.9;;;;;;;;;
2021/06/01 00:32:07;;;;;;;4.85;2.92;;;15.8;94.9;;;;;;;;;
2021/06/01 00:32:17;;;;;;;4.85;2.92;;;15.8;94.9;;;;;;;;;
2021/06/01 00:32:27;;;;;;;4.53;2.9;;;15.8;95;;;;;;;;;
2021/06/01 00:32:42;;;;;;;4.53;2.9;;;15.8;95;;;;;;;;;
2021/06/01 00:32:53;;;;;;;4.53;2.9;;;15.8;95;;;;;;;;;
2021/06/01 00:33:01;;;;;;;4.53;2.9;;;15.8;95;;;;;;;;;
2021/06/01 00:33:08;;;;;;;4.53;2.9;;;15.8;95;;;;;;;;;
2021/06/01 00:33:13;;;;;;;4.53;2.9;;;15.8;95;;;;;;;;;
2021/06/01 00:33:28;;;;;;;4;2.78;;;15.7;95.1;;;;;;;;;
2021/06/01 00:33:44;;;;;;;4;2.78;;;15.7;95.1;;;;;;;;;
2021/06/01 00:33:54;;;;;;;4;2.78;;;15.7;95.1;;;;;;;;;
2021/06/01 00:34:02;;;;;;;4;2.78;;;15.7;95.1;;;;;;;;;
2021/06/01 00:34:04;;;;;;;4;2.78;;;15.7;95.1;;;;;;;;;
2021/06/01 00:34:15;;;;;;;4;2.78;;;15.7;95.1;;;;;;;;;
2021/06/01 00:34:30;;;;;;;4.72;2.6;;;15.7;95.3;;;;;;;;;
2021/06/01 00:34:40;;;;;;;4.72;2.6;;;15.7;95.3;;;;;;;;;
2021/06/01 00:34:57;;;;;;;4.72;2.6;;;15.7;95.3;;;;;;;;;
2021/06/01 00:35:02;;;;;;;4.72;2.6;;;15.7;95.3;;;;;;;;;
2021/06/01 00:35:06;;;;;;;4.72;2.6;;;15.7;95.3;;;;;;;;;
2021/06/01 00:35:17;;;;;;;4.72;2.6;;;15.7;95.3;;;;;;;;;
2021/06/01 00:35:26;;;;;;;3.53;2.6;;;15.6;95.4;;;;;;;;;
2021/06/01 00:35:42;;;;;;;3.53;2.6;;;15.6;95.4;;;;;;;;;
2021/06/01 00:35:57;;;;;;;3.53;2.6;;;15.6;95.4;;;;;;;;;
2021/06/01 00:36:02;;;;;;;3.53;2.6;;;15.6;95.4;;;;;;;;;
2021/06/01 00:36:07;;;;;;;3.53;2.6;;;15.6;95.4;;;;;;;;;
2021/06/01 00:36:17;;;;;;;3.53;2.6;;;15.6;95.4;;;;;;;;;
2021/06/01 00:36:28;;;;;;;3.13;2.67;;;15.5;95.6;;;;;;;;;
2021/06/01 00:36:43;;;;;;;3.13;2.67;;;15.5;95.6;;;;;;;;;
2021/06/01 00:36:53;;;;;;;3.13;2.67;;;15.5;95.6;;;;;;;;;
2021/06/01 00:37:03;;;;;;;3.13;2.67;;;15.5;95.6;;;;;;;;;
2021/06/01 00:37:09;;;;;;;3.13;2.67;;;15.5;95.6;;;;;;;;;
2021/06/01 00:37:14;;;;;;;3.13;2.67;;;15.5;95.6;;;;;;;;;
2021/06/01 00:37:29;;;;;;;4.03;3;;;15.4;95.8;;;;;;;;;
2021/06/01 00:37:39;;;;;;;4.03;3;;;15.4;95.8;;;;;;;;;
2021/06/01 00:37:55;;;;;;;4.03;3;;;15.4;95.8;;;;;;;;;
2021/06/01 00:38:01;;;;;;;4.03;3;;;15.4;95.8;;;;;;;;;
2021/06/01 00:38:10;;;;;;;4.03;3;;;15.4;95.8;;;;;;;;;
2021/06/01 00:38:15;;;;;;;4.03;3;;;15.4;95.8;;;;;;;;;
2021/06/01 00:38:30;;;;;;;9.25;3.2;;;15.4;96;;;;;;;;;
2021/06/01 00:38:41;;;;;;;9.25;3.2;;;15.4;96;;;;;;;;;
2021/06/01 00:38:56;;;;;;;9.25;3.2;;;15.4;96;;;;;;;;;
2021/06/01 00:39:02;;;;;;;9.25;3.2;;;15.4;96;;;;;;;;;
2021/06/01 00:39:06;;;;;;;9.25;3.2;;;15.4;96;;;;;;;;;
2021/06/01 00:39:17;;;;;;;9.25;3.2;;;15.4;96;;;;;;;;;
2021/06/01 00:39:27;;;;;;;4.7;2.83;;;15.4;96;;;;;;;;;
2021/06/01 00:39:42;;;;;;;4.7;2.83;;;15.4;96;;;;;;;;;
2021/06/01 00:39:53;;;;;;;4.7;2.83;;;15.4;96;;;;;;;;;
2021/06/01 00:40:01;;;;;;;4.7;2.83;;;15.4;96;;;;;;;;;
2021/06/01 00:40:08;;;;;;;4.7;2.83;;;15.4;96;;;;;;;;;
2021/06/01 00:40:13;;;;;;;4.7;2.83;;;15.4;96;;;;;;;;;
2021/06/01 00:40:28;;;;;;;5.2;3.35;;;15.3;96.1;;;;;;;;;
2021/06/01 00:40:44;;;;;;;5.2;3.35;;;15.3;96.1;;;;;;;;;
2021/06/01 00:40:55;;;;;;;5.2;3.35;;;15.3;96.1;;;;;;;;;
2021/06/01 00:41:02;;;;;;;5.2;3.35;;;15.3;96.1;;;;;;;;;
2021/06/01 00:41:09;;;;;;;5.2;3.35;;;15.3;96.1;;;;;;;;;
2021/06/01 00:41:16;;;;;;;5.2;3.35;;;15.3;96.1;;;;;;;;;
2021/06/01 00:41:30;;;;;;;2.92;2.63;;;15.3;96.2;;;;;;;;;
2021/06/01 00:41:41;;;;;;;2.92;2.63;;;15.3;96.2;;;;;;;;;
2021/06/01 00:41:55;;;;;;;2.92;2.63;;;15.3;96.2;;;;;;;;;
2021/06/01 00:42:02;;;;;;;2.92;2.63;;;15.3;96.2;;;;;;;;;
2021/06/01 00:42:06;;;;;;;2.92;2.63;;;15.3;96.2;;;;;;;;;
2021/06/01 00:42:16;;;;;;;2.92;2.63;;;15.3;96.2;;;;;;;;;
2021/06/01 00:42:26;;;;;;;3.6;2.97;;;15.3;96.3;;;;;;;;;
2021/06/01 00:42:41;;;;;;;3.6;2.97;;;15.3;96.3;;;;;;;;;
2021/06/01 00:42:57;;;;;;;3.6;2.97;;;15.3;96.3;;;;;;;;;
2021/06/01 00:43:02;;;;;;;3.6;2.97;;;15.3;96.3;;;;;;;;;
2021/06/01 00:43:07;;;;;;;3.6;2.97;;;15.3;96.3;;;;;;;;;
2021/06/01 00:43:12;;;;;;;3.6;2.97;;;15.3;96.3;;;;;;;;;
2021/06/01 00:43:27;;;;;;;4.97;2.8;;;15.3;96.3;;;;;;;;;
2021/06/01 00:43:43;;;;;;;4.97;2.8;;;15.3;96.3;;;;;;;;;
2021/06/01 00:43:53;;;;;;;4.97;2.8;;;15.3;96.3;;;;;;;;;
2021/06/01 00:44:02;;;;;;;4.97;2.8;;;15.3;96.3;;;;;;;;;
2021/06/01 00:44:08;;;;;;;4.97;2.8;;;15.3;96.3;;;;;;;;;
2021/06/01 00:44:14;;;;;;;4.97;2.8;;;15.3;96.3;;;;;;;;;
2021/06/01 00:44:29;;;;;;;3.85;2.88;;;15.3;96.3;;;;;;;;;
2021/06/01 00:44:39;;;;;;;3.85;2.88;;;15.3;96.3;;;;;;;;;
2021/06/01 00:44:54;;;;;;;3.85;2.88;;;15.3;96.3;;;;;;;;;
2021/06/01 00:45:02;;;;;;;3.85;2.88;;;15.3;96.3;;;;;;;;;
2021/06/01 00:45:10;;;;;;;3.85;2.88;;;15.3;96.3;;;;;;;;;
2021/06/01 00:45:20;;;;;;;3.85;2.88;;;15.3;96.3;;;;;;;;;
2021/06/01 00:45:26;;;;;;;3.2;2.88;;;15.3;96.3;;;;;;;;;
2021/06/01 00:45:41;;;;;;;3.2;2.88;;;15.3;96.3;;;;;;;;;
2021/06/01 00:45:56;;;;;;;3.2;2.88;;;15.3;96.3;;;;;;;;;
2021/06/01 00:46:02;;;;;;;3.2;2.88;;;15.3;96.3;;;;;;;;;
2021/06/01 00:46:06;;;;;;;3.2;2.88;;;15.3;96.3;;;;;;;;;
2021/06/01 00:46:16;;;;;;;3.2;2.88;;;15.3;96.3;;;;;;;;;
2021/06/01 00:46:27;;;;;;;5.2;2.95;;;15.4;96.2;;;;;;;;;
2021/06/01 00:46:42;;;;;;;5.2;2.95;;;15.4;96.2;;;;;;;;;
2021/06/01 00:46:52;;;;;;;5.2;2.95;;;15.4;96.2;;;;;;;;;
2021/06/01 00:47:02;;;;;;;5.2;2.95;;;15.4;96.2;;;;;;;;;
2021/06/01 00:47:08;;;;;;;5.2;2.95;;;15.4;96.2;;;;;;;;;
2021/06/01 00:47:18;;;;;;;5.2;2.95;;;15.4;96.2;;;;;;;;;
2021/06/01 00:47:33;;;;;;;4.13;2.58;;;15.4;96.2;;;;;;;;;
2021/06/01 00:47:40;;;;;;;4.13;2.58;;;15.4;96.2;;;;;;;;;
2021/06/01 00:47:54;;;;;;;4.13;2.58;;;15.4;96.2;;;;;;;;;
2021/06/01 00:48:02;;;;;;;4.13;2.58;;;15.4;96.2;;;;;;;;;
2021/06/01 00:48:09;;;;;;;4.13;2.58;;;15.4;96.2;;;;;;;;;
2021/06/01 00:48:14;;;;;;;4.13;2.58;;;15.4;96.2;;;;;;;;;
2021/06/01 00:48:30;;;;;;;3.17;2.58;;;15.4;96.6;;;;;;;;;
2021/06/01 00:48:40;;;;;;;3.17;2.58;;;15.4;96.6;;;;;;;;;
2021/06/01 00:48:55;;;;;;;3.17;2.58;;;15.4;96.6;;;;;;;;;
2021/06/01 00:49:02;;;;;;;3.17;2.58;;;15.4;96.6;;;;;;;;;
2021/06/01 00:49:05;;;;;;;3.17;2.58;;;15.4;96.6;;;;;;;;;
2021/06/01 00:49:16;;;;;;;3.17;2.58;;;15.4;96.6;;;;;;;;;
2021/06/01 00:49:31;;;;;;;4.03;2.5;;;15.3;96.4;;;;;;;;;
2021/06/01 00:49:46;;;;;;;4.03;2.5;;;15.3;96.4;;;;;;;;;
2021/06/01 00:49:51;;;;;;;4.03;2.5;;;15.3;96.4;;;;;;;;;
2021/06/01 00:50:01;;;;;;;4.03;2.5;;;15.3;96.4;;;;;;;;;
2021/06/01 00:50:07;;;;;;;4.03;2.5;;;15.3;96.4;;;;;;;;;
2021/06/01 00:50:17;;;;;;;4.03;2.5;;;15.3;96.4;;;;;;;;;
2021/06/01 00:50:27;;;;;;;3.42;2.42;;;15.3;96.4;;;;;;;;;
2021/06/01 00:50:43;;;;;;;3.42;2.42;;;15.3;96.4;;;;;;;;;
2021/06/01 00:50:53;;;;;;;3.42;2.42;;;15.3;96.4;;;;;;;;;
2021/06/01 00:51:02;;;;;;;3.42;2.42;;;15.3;96.4;;;;;;;;;
2021/06/01 00:51:08;;;;;;;3.42;2.42;;;15.3;96.4;;;;;;;;;
2021/06/01 00:51:14;;;;;;;3.42;2.42;;;15.3;96.4;;;;;;;;;
2021/06/01 00:51:30;;;;;;;3.45;2.3;;;15.3;96.5;;;;;;;;;
2021/06/01 00:51:44;;;;;;;3.45;2.3;;;15.3;96.5;;;;;;;;;
2021/06/01 00:51:59;;;;;;;3.45;2.3;;;15.3;96.5;;;;;;;;;
2021/06/01 00:52:02;;;;;;;3.45;2.3;;;15.3;96.5;;;;;;;;;
2021/06/01 00:52:05;;;;;;;3.45;2.3;;;15.3;96.5;;;;;;;;;
2021/06/01 00:52:15;;;;;;;3.45;2.3;;;15.3;96.5;;;;;;;;;
2021/06/01 00:52:30;;;;;;;2.78;2.45;;;15.3;96.5;;;;;;;;;
2021/06/01 00:52:40;;;;;;;2.78;2.45;;;15.3;96.5;;;;;;;;;
2021/06/01 00:52:56;;;;;;;2.78;2.45;;;15.3;96.5;;;;;;;;;
2021/06/01 00:53:02;;;;;;;2.78;2.45;;;15.3;96.5;;;;;;;;;
2021/06/01 00:53:06;;;;;;;2.78;2.45;;;15.3;96.5;;;;;;;;;
2021/06/01 00:53:16;;;;;;;2.78;2.45;;;15.3;96.5;;;;;;;;;
2021/06/01 00:53:27;;;;;;;4.3;2.4;;;15.2;96.6;;;;;;;;;
2021/06/01 00:53:42;;;;;;;4.3;2.4;;;15.2;96.6;;;;;;;;;
2021/06/01 00:53:57;;;;;;;4.3;2.4;;;15.2;96.6;;;;;;;;;
2021/06/01 00:54:02;;;;;;;4.3;2.4;;;15.2;96.6;;;;;;;;;
2021/06/01 00:54:13;;;;;;;4.3;2.4;;;15.2;96.6;;;;;;;;;
2021/06/01 00:54:13;;;;;;;4.3;2.4;;;15.2;96.6;;;;;;;;;
2021/06/01 00:54:28;;;;;;;4.68;2.75;;;15.2;96.6;;;;;;;;;
2021/06/01 00:54:43;;;;;;;4.68;2.75;;;15.2;96.6;;;;;;;;;
2021/06/01 00:54:54;;;;;;;4.68;2.75;;;15.2;96.6;;;;;;;;;
2021/06/01 00:55:01;;;;;;;4.68;2.75;;;15.2;96.6;;;;;;;;;
2021/06/01 00:55:09;;;;;;;4.68;2.75;;;15.2;96.6;;;;;;;;;
2021/06/01 00:55:14;;;;;;;4.68;2.75;;;15.2;96.6;;;;;;;;;
2021/06/01 00:55:29;;;;;;;3;2.55;;;15.2;96.6;;;;;;;;;
2021/06/01 00:55:40;;;;;;;3;2.55;;;15.2;96.6;;;;;;;;;
2021/06/01 00:55:55;;;;;;;3;2.55;;;15.2;96.6;;;;;;;;;
2021/06/01 00:56:02;;;;;;;3;2.55;;;15.2;96.6;;;;;;;;;
2021/06/01 00:56:10;;;;;;;3;2.55;;;15.2;96.6;;;;;;;;;
2021/06/01 00:56:15;;;;;;;3;2.55;;;15.2;96.6;;;;;;;;;
2021/06/01 00:56:26;;;;;;;3;2.55;;;15.2;96.6;;;;;;;;;
2021/06/01 00:56:41;;;;;;;8.95;3.38;;;15.2;96.6;;;;;;;;;
2021/06/01 00:56:57;;;;;;;8.95;3.38;;;15.2;96.6;;;;;;;;;
2021/06/01 00:57:01;;;;;;;8.95;3.38;;;15.2;96.6;;;;;;;;;
2021/06/01 00:57:07;;;;;;;8.95;3.38;;;15.2;96.6;;;;;;;;;
2021/06/01 00:57:17;;;;;;;8.95;3.38;;;15.2;96.6;;;;;;;;;
2021/06/01 00:57:27;;;;;;;2.88;2.53;;;15.2;96.7;;;;;;;;;
2021/06/01 00:57:43;;;;;;;2.88;2.53;;;15.2;96.7;;;;;;;;;
2021/06/01 00:57:53;;;;;;;2.88;2.53;;;15.2;96.7;;;;;;;;;
2021/06/01 00:58:02;;;;;;;2.88;2.53;;;15.2;96.7;;;;;;;;;
2021/06/01 00:58:08;;;;;;;2.88;2.53;;;15.2;96.7;;;;;;;;;
2021/06/01 00:58:13;;;;;;;2.88;2.53;;;15.2;96.7;;;;;;;;;
2021/06/01 00:58:29;;;;;;;5.03;2.75;;;15.2;96.8;;;;;;;;;
2021/06/01 00:58:39;;;;;;;5.03;2.75;;;15.2;96.8;;;;;;;;;
2021/06/01 00:58:54;;;;;;;5.03;2.75;;;15.2;96.8;;;;;;;;;
2021/06/01 00:59:02;;;;;;;5.03;2.75;;;15.2;96.8;;;;;;;;;
2021/06/01 00:59:10;;;;;;;5.03;2.75;;;15.2;96.8;;;;;;;;;
2021/06/01 00:59:15;;;;;;;5.03;2.75;;;15.2;96.8;;;;;;;;;
2021/06/01 00:59:30;;;;;;;3.15;2.85;;;15.1;96.8;;;;;;;;;
2021/06/01 00:59:40;;;;;;;3.15;2.85;;;15.1;96.8;;;;;;;;;
2021/06/01 00:59:56;;;;;;;3.15;2.85;;;15.1;96.8;;;;;;;;;
2021/06/01 01:00:01;;;;;;;3.15;2.85;;;15.1;96.8;;;;;;;;;
2021/06/01 01:00:06;;;;;;;3.15;2.85;;;15.1;96.8;;;;;;;;;
2021/06/01 01:00:30;;;;;;;3.15;2.85;;;15.1;96.8;;;;;;;;;
2021/06/01 01:00:48;;;;;;;3.15;2.85;;;15.1;96.8;;;;;;;;;
2021/06/01 01:01:17;;;;;;;3.15;2.8;;;15.2;96.8;;;;;;;;;
2021/06/01 01:01:19;;;;;;;3.15;2.8;;;15.2;96.8;;;;;;;;;
2021/06/01 01:01:19;;;;;;;3.15;2.8;;;15.2;96.8;;;;;;;;;
2021/06/01 01:01:19;;;;;;;3.15;2.8;;;15.2;96.8;;;;;;;;;
2021/06/01 01:01:28;;;;;;;3.15;2.8;;;15.2;96.8;;;;;;;;;
2021/06/01 01:01:43;;;;;;;3.95;2.85;;;15.2;96.8;;;;;;;;;
2021/06/01 01:01:46;;;;;;;3.15;2.8;;;15.2;96.8;;;;;;;;;
2021/06/01 01:01:53;;;;;;;3.95;2.85;;;15.2;96.8;;;;;;;;;
2021/06/01 01:02:04;;;;;;;3.95;2.85;;;15.2;96.8;;;;;;;;;
2021/06/01 01:02:09;;;;;;;3.95;2.85;;;15.2;96.8;;;;;;;;;
2021/06/01 01:02:19;;;;;;;3.95;2.85;;;15.2;96.8;;;;;;;;;
2021/06/01 01:02:45;;;;;;;3.65;2.65;;;15.2;96.8;;;;;;;;;
2021/06/01 01:03:00;;;;;;;3.65;2.65;;;15.2;96.8;;;;;;;;;
2021/06/01 01:03:02;;;;;;;3.65;2.65;;;15.2;96.8;;;;;;;;;
2021/06/01 01:03:31;;;;;;;3.28;2.45;;;15.1;96.9;;;;;;;;;
2021/06/01 01:03:31;;;;;;;3.28;2.45;;;15.1;96.9;;;;;;;;;
2021/06/01 01:03:31;;;;;;;3.28;2.45;;;15.1;96.9;;;;;;;;;
2021/06/01 01:03:41;;;;;;;3.28;2.45;;;15.1;96.9;;;;;;;;;
2021/06/01 01:03:56;;;;;;;3.28;2.45;;;15.1;96.9;;;;;;;;;
2021/06/01 01:03:56;;;;;;;3.28;2.45;;;15.1;96.9;;;;;;;;;
2021/06/01 01:04:02;;;;;;;3.28;2.45;;;15.1;96.9;;;;;;;;;
2021/06/01 01:04:07;;;;;;;3.28;2.45;;;15.1;96.9;;;;;;;;;
2021/06/01 01:04:17;;;;;;;3.28;2.45;;;15.1;96.9;;;;;;;;;
2021/06/01 01:04:32;;;;;;;3.88;2.72;;;15.1;97;;;;;;;;;
2021/06/01 01:04:58;;;;;;;3.88;2.72;;;15.1;97;;;;;;;;;
2021/06/01 01:05:05;;;;;;;3.88;2.72;;;15.1;97;;;;;;;;;
2021/06/01 01:05:14;;;;;;;3.88;2.72;;;15.1;97;;;;;;;;;
2021/06/01 01:05:14;;;;;;;3.88;2.72;;;15.1;97;;;;;;;;;
2021/06/01 01:05:47;;;;;;;3.45;2.45;;;15.1;97.1;;;;;;;;;
2021/06/01 01:05:47;;;;;;;3.45;2.45;;;15.1;97.1;;;;;;;;;
2021/06/01 01:06:02;;;;;;;3.45;2.45;;;15.1;97.1;;;;;;;;;
2021/06/01 01:06:04;;;;;;;3.45;2.45;;;15.1;97.1;;;;;;;;;
2021/06/01 01:06:13;;;;;;;3.45;2.45;;;15.1;97.1;;;;;;;;;
2021/06/01 01:06:13;;;;;;;3.45;2.45;;;15.1;97.1;;;;;;;;;
2021/06/01 01:06:19;;;;;;;3.45;2.45;;;15.1;97.1;;;;;;;;;
2021/06/01 01:06:33;;;;;;;4.68;2.83;;;15.1;97.1;;;;;;;;;
2021/06/01 01:06:47;;;;;;;4.68;2.83;;;15.1;97.1;;;;;;;;;
2021/06/01 01:07:13;;;;;;;4.68;2.83;;;15.1;97.1;;;;;;;;;
2021/06/01 01:07:16;;;;;;;4.68;2.83;;;15.1;97.1;;;;;;;;;
2021/06/01 01:07:18;;;;;;;4.68;2.83;;;15.1;97.1;;;;;;;;;
2021/06/01 01:07:35;;;;;;;4.68;2.83;;;15.1;97.1;;;;;;;;;
2021/06/01 01:07:35;;;;;;;4.68;2.83;;;15.1;97.1;;;;;;;;;
2021/06/01 01:08:03;;;;;;;3.83;2.28;;;15.1;97.2;;;;;;;;;
2021/06/01 01:08:03;;;;;;;3.83;2.28;;;15.1;97.2;;;;;;;;;
2021/06/01 01:08:05;;;;;;;3.83;2.28;;;15.1;97.2;;;;;;;;;
2021/06/01 01:08:31;;;;;;;3.83;2.28;;;15.1;97.2;;;;;;;;;
2021/06/01 01:08:32;;;;;;;3.83;2.28;;;15.1;97.2;;;;;;;;;
2021/06/01 01:08:47;;;;;;;3.45;2.47;;;15;97.1;;;;;;;;;
2021/06/01 01:08:51;;;;;;;3.45;2.47;;;15;97.1;;;;;;;;;
2021/06/01 01:09:01;;;;;;;3.45;2.47;;;15;97.1;;;;;;;;;
2021/06/01 01:09:08;;;;;;;3.45;2.47;;;15;97.1;;;;;;;;;
2021/06/01 01:09:29;;;;;;;3.45;2.47;;;15;97.1;;;;;;;;;
2021/06/01 01:09:29;;;;;;;3.45;2.47;;;15;97.1;;;;;;;;;
2021/06/01 01:09:34;;;;;;;4.68;2.7;;;15.1;97.2;;;;;;;;;
2021/06/01 01:09:50;;;;;;;4.68;2.7;;;15.1;97.2;;;;;;;;;
2021/06/01 01:10:02;;;;;;;4.68;2.7;;;15.1;97.2;;;;;;;;;
2021/06/01 01:10:15;;;;;;;4.68;2.7;;;15.1;97.2;;;;;;;;;
2021/06/01 01:10:20;;;;;;;4.68;2.7;;;15.1;97.2;;;;;;;;;
2021/06/01 01:10:25;;;;;;;4.68;2.7;;;15.1;97.2;;;;;;;;;
2021/06/01 01:10:46;;;;;;;3.67;2.72;;;15.1;97.2;;;;;;;;;
2021/06/01 01:11:01;;;;;;;3.67;2.72;;;15.1;97.2;;;;;;;;;
2021/06/01 01:11:06;;;;;;;3.67;2.72;;;15.1;97.2;;;;;;;;;
2021/06/01 01:11:06;;;;;;;3.67;2.72;;;15.1;97.2;;;;;;;;;
2021/06/01 01:11:17;;;;;;;3.67;2.72;;;15.1;97.2;;;;;;;;;
2021/06/01 01:11:22;;;;;;;3.67;2.72;;;15.1;97.2;;;;;;;;;
2021/06/01 01:11:42;;;;;;;6.63;2.85;;;15.1;97.1;;;;;;;;;
2021/06/01 01:11:47;;;;;;;6.63;2.85;;;15.1;97.1;;;;;;;;;
2021/06/01 01:12:02;;;;;;;6.63;2.85;;;15.1;97.1;;;;;;;;;
2021/06/01 01:12:03;;;;;;;6.63;2.85;;;15.1;97.1;;;;;;;;;
2021/06/01 01:12:20;;;;;;;6.63;2.85;;;15.1;97.1;;;;;;;;;
2021/06/01 01:12:28;;;;;;;6.63;2.85;;;15.1;97.1;;;;;;;;;
2021/06/01 01:12:34;;;;;;;2.63;2.42;;;15;97.1;;;;;;;;;
2021/06/01 01:12:59;;;;;;;2.63;2.42;;;15;97.1;;;;;;;;;
2021/06/01 01:13:04;;;;;;;2.63;2.42;;;15;97.1;;;;;;;;;
2021/06/01 01:13:19;;;;;;;2.63;2.42;;;15;97.1;;;;;;;;;
2021/06/01 01:13:20;;;;;;;2.63;2.42;;;15;97.1;;;;;;;;;
2021/06/01 01:13:20;;;;;;;2.63;2.42;;;15;97.1;;;;;;;;;
2021/06/01 01:13:35;;;;;;;3.15;2.85;;;15.1;97.2;;;;;;;;;
2021/06/01 01:14:00;;;;;;;3.15;2.85;;;15.1;97.2;;;;;;;;;
2021/06/01 01:14:02;;;;;;;3.15;2.85;;;15.1;97.2;;;;;;;;;
2021/06/01 01:14:06;;;;;;;3.15;2.85;;;15.1;97.2;;;;;;;;;
2021/06/01 01:14:16;;;;;;;3.15;2.85;;;15.1;97.2;;;;;;;;;
2021/06/01 01:14:16;;;;;;;3.15;2.85;;;15.1;97.2;;;;;;;;;
2021/06/01 01:14:36;;;;;;;2.42;2.22;;;15;97.2;;;;;;;;;
2021/06/01 01:14:52;;;;;;;2.42;2.22;;;15;97.2;;;;;;;;;
2021/06/01 01:15:02;;;;;;;2.42;2.22;;;15;97.2;;;;;;;;;
2021/06/01 01:15:12;;;;;;;2.42;2.22;;;15;97.2;;;;;;;;;
2021/06/01 01:15:20;;;;;;;2.42;2.22;;;15;97.2;;;;;;;;;
2021/06/01 01:15:33;;;;;;;4.53;2.85;;;15;97.4;;;;;;;;;
2021/06/01 01:15:33;;;;;;;4.53;2.85;;;15;97.4;;;;;;;;;
2021/06/01 01:15:53;;;;;;;4.53;2.85;;;15;97.4;;;;;;;;;
2021/06/01 01:16:02;;;;;;;4.53;2.85;;;15;97.4;;;;;;;;;
2021/06/01 01:16:14;;;;;;;4.53;2.85;;;15;97.4;;;;;;;;;
2021/06/01 01:16:19;;;;;;;4.53;2.85;;;15;97.4;;;;;;;;;
2021/06/01 01:16:19;;;;;;;4.53;2.85;;;15;97.4;;;;;;;;;
2021/06/01 01:16:29;;;;;;;4.53;2.85;;;15;97.4;;;;;;;;;
2021/06/01 01:16:49;;;;;;;4.93;2.63;;;15.1;97.3;;;;;;;;;